Time;durP1;ratioP1;P1;durP2;ratioP2;P2;SDS_P1;SDS_P2;PMS_P1;PMS_P2;Temp;Humidity;BMP_temperature;BMP_pressure;BME280_temperature;BME280_humidity;BME280_pressure;Samples;Min_cycle;Max_cycle;Signal;HPM_P1;HPM_P2
2023/10/15 00:01:30;;;;;;;1.35;1.20;;;;;;;;;;5039033;28;20194;-70
2023/10/15 00:03:56;;;;;;;6.15;1.40;;;;;;;;;;5039061;28;20241;-70
2023/10/15 00:06:23;;;;;;;3.85;1.60;;;;;;;;;;5040750;28;20671;-70
2023/10/15 00:08:50;;;;;;;1.88;1.40;;;;;;;;;;5042464;28;20206;-70
2023/10/15 00:11:18;;;;;;;3.13;1.20;;;;;;;;;;5041462;28;20371;-70
2023/10/15 00:13:44;;;;;;;1.92;1.58;;;;;;;;;;5039270;28;20197;-70
2023/10/15 00:16:17;;;;;;;3.28;1.60;;;;;;;;;;5038737;28;20230;-70
2023/10/15 00:18:44;;;;;;;2.35;1.27;;;;;;;;;;5045798;28;20212;-70
2023/10/15 00:21:12;;;;;;;5.25;1.30;;;;;;;;;;5045677;28;20201;-70
2023/10/15 00:23:40;;;;;;;2.08;1.40;;;;;;;;;;5042879;28;20201;-70
2023/10/15 00:26:07;;;;;;;3.47;1.45;;;;;;;;;;5050212;28;20225;-70
2023/10/15 00:28:33;;;;;;;2.92;1.63;;;;;;;;;;5042769;28;20190;-70
2023/10/15 00:31:00;;;;;;;1.98;1.40;;;;;;;;;;5042940;28;20201;-70
2023/10/15 00:33:28;;;;;;;3.45;1.70;;;;;;;;;;5051651;22;20222;-69
2023/10/15 00:35:56;;;;;;;3.13;1.40;;;;;;;;;;5027022;28;20266;-70
2023/10/15 00:38:24;;;;;;;3.50;1.60;;;;;;;;;;5026975;28;20209;-70
2023/10/15 00:40:51;;;;;;;1.58;1.30;;;;;;;;;;5024987;28;20199;-70
2023/10/15 00:43:18;;;;;;;1.88;1.50;;;;;;;;;;5023869;28;20293;-70
2023/10/15 00:45:45;;;;;;;2.08;1.60;;;;;;;;;;5025724;28;20221;-70
2023/10/15 00:48:19;;;;;;;3.08;1.70;;;;;;;;;;5025381;28;20736;-69
2023/10/15 00:50:48;;;;;;;2.25;1.40;;;;;;;;;;5026309;28;20252;-70
2023/10/15 00:53:22;;;;;;;2.03;1.58;;;;;;;;;;5025132;28;20732;-69
2023/10/15 00:55:52;;;;;;;4.57;1.50;;;;;;;;;;5021924;28;20221;-69
2023/10/15 00:58:31;;;;;;;3.50;1.45;;;;;;;;;;5022563;28;20273;-69
2023/10/15 01:01:00;;;;;;;4.07;1.42;;;;;;;;;;5025374;28;20280;-69
2023/10/15 01:03:30;;;;;;;1.92;1.55;;;;;;;;;;5023511;28;20213;-70
2023/10/15 01:06:04;;;;;;;2.60;1.45;;;;;;;;;;5021716;28;20229;-70
2023/10/15 01:08:35;;;;;;;2.83;1.45;;;;;;;;;;5038961;28;20210;-70
2023/10/15 01:11:08;;;;;;;2.60;1.40;;;;;;;;;;5025230;28;20201;-69
2023/10/15 01:13:35;;;;;;;2.38;1.58;;;;;;;;;;5022316;28;20308;-69
2023/10/15 01:16:03;;;;;;;3.53;1.73;;;;;;;;;;5021621;28;20241;-69
2023/10/15 01:18:30;;;;;;;1.67;1.40;;;;;;;;;;5023224;28;20572;-69
2023/10/15 01:21:01;;;;;;;4.43;1.70;;;;;;;;;;5024707;28;20201;-69
2023/10/15 01:23:32;;;;;;;3.80;1.38;;;;;;;;;;5023485;28;20202;-69
2023/10/15 01:26:00;;;;;;;3.67;1.23;;;;;;;;;;5021517;28;20217;-69
2023/10/15 01:28:36;;;;;;;6.15;1.92;;;;;;;;;;5022292;28;20659;-69
2023/10/15 01:31:05;;;;;;;2.55;1.38;;;;;;;;;;5024408;28;20674;-70
2023/10/15 01:33:31;;;;;;;6.07;1.48;;;;;;;;;;5022596;28;20209;-70
2023/10/15 01:36:05;;;;;;;2.20;1.80;;;;;;;;;;5021461;28;20226;-70
2023/10/15 01:38:33;;;;;;;5.07;1.73;;;;;;;;;;5023078;28;20297;-70
2023/10/15 01:41:03;;;;;;;2.90;1.70;;;;;;;;;;5024284;28;20686;-70
2023/10/15 01:43:32;;;;;;;3.95;1.50;;;;;;;;;;5022604;28;20681;-70
2023/10/15 01:46:06;;;;;;;4.70;1.80;;;;;;;;;;5020831;28;20245;-70
2023/10/15 01:48:33;;;;;;;2.35;1.40;;;;;;;;;;5023073;28;20210;-70
2023/10/15 01:51:04;;;;;;;4.15;1.75;;;;;;;;;;5024345;28;20201;-70
2023/10/15 01:53:34;;;;;;;4.20;1.88;;;;;;;;;;5022508;28;20296;-70
2023/10/15 01:56:03;;;;;;;4.25;2.05;;;;;;;;;;5020756;28;20737;-70
2023/10/15 01:58:32;;;;;;;3.38;1.77;;;;;;;;;;5021973;28;20202;-70
2023/10/15 02:01:05;;;;;;;3.65;1.67;;;;;;;;;;5023917;28;20222;-70
2023/10/15 02:03:32;;;;;;;2.08;1.45;;;;;;;;;;5022456;28;20201;-70
2023/10/15 02:06:05;;;;;;;12.13;1.55;;;;;;;;;;5020595;28;20658;-70
2023/10/15 02:08:31;;;;;;;1.95;1.13;;;;;;;;;;5022155;28;20246;-69
2023/10/15 02:11:02;;;;;;;1.30;1.20;;;;;;;;;;5023665;28;20198;-69
2023/10/15 02:13:31;;;;;;;4.90;1.70;;;;;;;;;;5022993;28;20201;-69
2023/10/15 02:15:57;;;;;;;2.13;1.30;;;;;;;;;;5020533;28;20714;-70
2023/10/15 02:18:23;;;;;;;1.48;1.35;;;;;;;;;;5020920;28;20207;-70
2023/10/15 02:21:00;;;;;;;4.13;1.77;;;;;;;;;;5023664;28;20220;-69
2023/10/15 02:23:26;;;;;;;2.42;1.50;;;;;;;;;;5023034;28;20225;-69
2023/10/15 02:25:56;;;;;;;2.50;1.50;;;;;;;;;;5020570;28;20230;-69
2023/10/15 02:28:25;;;;;;;2.03;1.73;;;;;;;;;;5020100;28;20198;-69
2023/10/15 02:30:59;;;;;;;2.85;1.45;;;;;;;;;;5023524;28;20472;-69
2023/10/15 02:33:25;;;;;;;2.70;1.52;;;;;;;;;;5023253;28;20206;-69
2023/10/15 02:35:54;;;;;;;3.80;1.77;;;;;;;;;;5020130;28;20222;-69
2023/10/15 02:38:25;;;;;;;2.80;1.60;;;;;;;;;;5020372;28;20205;-70
2023/10/15 02:41:05;;;;;;;3.90;1.65;;;;;;;;;;5023180;28;20320;-70
2023/10/15 02:43:32;;;;;;;3.28;1.50;;;;;;;;;;5022190;28;20205;-70
2023/10/15 02:46:00;;;;;;;3.33;1.35;;;;;;;;;;5019884;28;20726;-69
2023/10/15 02:48:27;;;;;;;2.47;1.17;;;;;;;;;;5020271;28;20671;-69
2023/10/15 02:51:00;;;;;;;4.65;1.40;;;;;;;;;;5023377;28;20618;-69
2023/10/15 02:53:27;;;;;;;4.50;1.40;;;;;;;;;;5022855;28;20256;-69
2023/10/15 02:55:57;;;;;;;4.18;1.60;;;;;;;;;;5019734;28;20667;-69
2023/10/15 02:58:27;;;;;;;3.25;1.70;;;;;;;;;;5019851;28;20203;-69
2023/10/15 03:00:59;;;;;;;3.95;1.58;;;;;;;;;;5023370;28;20244;-70
2023/10/15 03:03:33;;;;;;;2.65;1.60;;;;;;;;;;5023242;28;20646;-70
2023/10/15 03:05:59;;;;;;;1.67;1.58;;;;;;;;;;5019784;28;20233;-70
2023/10/15 03:08:31;;;;;;;8.07;1.98;;;;;;;;;;5019903;28;20217;-69
2023/10/15 03:11:01;;;;;;;3.22;1.80;;;;;;;;;;5023781;28;20194;-69
2023/10/15 03:13:29;;;;;;;5.90;1.98;;;;;;;;;;5022721;28;20304;-69
2023/10/15 03:15:57;;;;;;;1.75;1.65;;;;;;;;;;5015601;28;20225;-69
2023/10/15 03:18:24;;;;;;;2.65;1.88;;;;;;;;;;5022940;28;20558;-69
2023/10/15 03:21:08;;;;;;;1.35;1.30;;;;;;;;;;5019477;28;20218;-69
2023/10/15 03:23:34;;;;;;;2.42;1.88;;;;;;;;;;5020629;28;20225;-69
2023/10/15 03:26:01;;;;;;;5.38;1.92;;;;;;;;;;5022760;28;20225;-69
2023/10/15 03:28:27;;;;;;;1.92;1.83;;;;;;;;;;5022803;28;20224;-69
2023/10/15 03:30:55;;;;;;;7.13;2.10;;;;;;;;;;5027509;28;20694;-69
2023/10/15 03:33:23;;;;;;;5.13;1.60;;;;;;;;;;5018649;28;20217;-69
2023/10/15 03:35:54;;;;;;;4.78;2.25;;;;;;;;;;5019989;28;20226;-69
2023/10/15 03:38:23;;;;;;;5.28;1.90;;;;;;;;;;5019331;28;20617;-70
2023/10/15 03:40:50;;;;;;;2.33;1.80;;;;;;;;;;5022165;28;20214;-69
2023/10/15 03:43:20;;;;;;;8.15;1.90;;;;;;;;;;5022942;28;20256;-69
2023/10/15 03:45:51;;;;;;;2.88;1.90;;;;;;;;;;5020207;28;20718;-69
2023/10/15 03:48:21;;;;;;;2.97;1.73;;;;;;;;;;5019438;28;20194;-69
2023/10/15 03:50:54;;;;;;;3.70;2.65;;;;;;;;;;5021805;28;20206;-69
2023/10/15 03:53:27;;;;;;;3.42;2.03;;;;;;;;;;5026824;28;20198;-69
2023/10/15 03:55:55;;;;;;;3.97;2.08;;;;;;;;;;5023314;28;20222;-69
2023/10/15 03:58:23;;;;;;;3.70;2.13;;;;;;;;;;5023164;28;20236;-69
2023/10/15 04:00:55;;;;;;;2.80;2.00;;;;;;;;;;5025570;28;20304;-69
2023/10/15 04:03:28;;;;;;;3.60;2.22;;;;;;;;;;5026598;28;20277;-69
2023/10/15 04:05:54;;;;;;;2.75;2.10;;;;;;;;;;5023191;28;20222;-70
2023/10/15 04:08:25;;;;;;;5.07;2.28;;;;;;;;;;5023023;28;20201;-70
2023/10/15 04:10:56;;;;;;;3.95;1.75;;;;;;;;;;5025337;28;20667;-70
2023/10/15 04:13:22;;;;;;;2.95;2.38;;;;;;;;;;5026102;28;20241;-70
2023/10/15 04:15:48;;;;;;;2.42;2.15;;;;;;;;;;5023609;28;20228;-70
2023/10/15 04:18:15;;;;;;;4.30;2.20;;;;;;;;;;5022540;28;20582;-69
2023/10/15 04:20:41;;;;;;;2.50;2.10;;;;;;;;;;5023542;28;20223;-69
2023/10/15 04:23:11;;;;;;;3.25;2.00;;;;;;;;;;5026011;28;20198;-69
2023/10/15 04:25:39;;;;;;;2.80;2.30;;;;;;;;;;5025049;28;20634;-69
2023/10/15 04:28:12;;;;;;;4.35;2.20;;;;;;;;;;5022356;28;20198;-69
2023/10/15 04:30:39;;;;;;;7.28;2.35;;;;;;;;;;5023068;28;20214;-69
2023/10/15 04:33:10;;;;;;;4.78;2.00;;;;;;;;;;5029723;28;20284;-68
2023/10/15 04:35:37;;;;;;;4.85;2.08;;;;;;;;;;5022503;28;20219;-69
2023/10/15 04:38:06;;;;;;;6.28;2.47;;;;;;;;;;5025657;28;20201;-71
2023/10/15 04:40:47;;;;;;;9.07;2.88;;;;;;;;;;5025312;28;20213;-71
2023/10/15 04:43:15;;;;;;;5.88;3.15;;;;;;;;;;5028652;28;20202;-70
2023/10/15 04:45:44;;;;;;;8.70;2.97;;;;;;;;;;5022841;28;20245;-70
2023/10/15 04:48:14;;;;;;;5.70;2.92;;;;;;;;;;5025644;28;20205;-69
2023/10/15 04:50:43;;;;;;;2.97;2.17;;;;;;;;;;5024714;28;20613;-69
2023/10/15 04:53:14;;;;;;;4.57;2.25;;;;;;;;;;5022695;28;20265;-69
2023/10/15 04:55:41;;;;;;;4.28;2.53;;;;;;;;;;5022662;28;20717;-69
2023/10/15 04:58:07;;;;;;;7.55;2.20;;;;;;;;;;5025625;28;20200;-69
2023/10/15 05:00:37;;;;;;;7.07;2.00;;;;;;;;;;5025701;28;20728;-69
2023/10/15 05:03:04;;;;;;;5.55;1.90;;;;;;;;;;5024957;28;20260;-69
2023/10/15 05:05:31;;;;;;;4.18;2.20;;;;;;;;;;5025212;28;20253;-69
2023/10/15 05:07:59;;;;;;;2.15;1.83;;;;;;;;;;5022626;28;20222;-70
2023/10/15 05:10:28;;;;;;;6.15;2.05;;;;;;;;;;5021931;28;20253;-69
2023/10/15 05:12:54;;;;;;;2.42;1.80;;;;;;;;;;5023950;28;20293;-69
2023/10/15 05:15:21;;;;;;;2.10;1.90;;;;;;;;;;5025133;28;20226;-69
2023/10/15 05:17:48;;;;;;;5.63;2.10;;;;;;;;;;5023919;28;20206;-69
2023/10/15 05:20:15;;;;;;;3.47;2.30;;;;;;;;;;5021414;28;20223;-70
2023/10/15 05:22:41;;;;;;;4.65;1.90;;;;;;;;;;5021454;28;20199;-60
2023/10/15 05:25:15;;;;;;;3.40;2.30;;;;;;;;;;5024866;28;20248;-60
2023/10/15 05:27:41;;;;;;;7.50;2.92;;;;;;;;;;5024394;28;20202;-60
2023/10/15 05:30:09;;;;;;;4.85;2.33;;;;;;;;;;5021107;28;20663;-60
2023/10/15 05:32:36;;;;;;;4.03;2.00;;;;;;;;;;5021268;28;20210;-60
2023/10/15 05:35:04;;;;;;;7.03;2.80;;;;;;;;;;5023837;28;20193;-60
2023/10/15 05:37:30;;;;;;;11.07;4.65;;;;;;;;;;5024710;28;20198;-60
2023/10/15 05:39:56;;;;;;;16.63;5.68;;;;;;;;;;5022143;28;20732;-60
2023/10/15 05:42:22;;;;;;;11.90;5.28;;;;;;;;;;5020955;28;20202;-61
2023/10/15 05:44:49;;;;;;;4.70;2.72;;;;;;;;;;5022094;28;20207;-59
2023/10/15 05:47:15;;;;;;;6.65;2.50;;;;;;;;;;5024274;28;20296;-59
2023/10/15 05:49:42;;;;;;;6.57;2.70;;;;;;;;;;5024279;28;20209;-60
2023/10/15 05:52:09;;;;;;;8.35;2.22;;;;;;;;;;5020648;28;20209;-60
2023/10/15 05:54:36;;;;;;;4.55;2.15;;;;;;;;;;5020963;28;20221;-60
2023/10/15 05:57:05;;;;;;;4.47;2.00;;;;;;;;;;5023386;28;20240;-60
2023/10/15 05:59:32;;;;;;;3.55;1.80;;;;;;;;;;5024167;28;20225;-60
2023/10/15 06:01:58;;;;;;;4.47;2.17;;;;;;;;;;5021563;28;20214;-60
2023/10/15 06:04:24;;;;;;;2.53;2.10;;;;;;;;;;5021149;28;20205;-60
2023/10/15 06:06:50;;;;;;;4.93;1.98;;;;;;;;;;5021696;28;20227;-59
2023/10/15 06:09:19;;;;;;;3.38;1.88;;;;;;;;;;5023898;28;20202;-59
2023/10/15 06:11:45;;;;;;;2.33;1.73;;;;;;;;;;5023367;28;20194;-60
2023/10/15 06:14:11;;;;;;;2.95;1.70;;;;;;;;;;5020621;28;20209;-60
2023/10/15 06:16:38;;;;;;;2.92;1.65;;;;;;;;;;5020214;28;20233;-60
2023/10/15 06:19:04;;;;;;;8.43;1.80;;;;;;;;;;5023181;28;20210;-60
2023/10/15 06:21:30;;;;;;;5.60;1.70;;;;;;;;;;5023572;28;20213;-61
2023/10/15 06:23:56;;;;;;;5.18;1.70;;;;;;;;;;5022234;28;20202;-60
2023/10/15 06:26:24;;;;;;;3.63;1.42;;;;;;;;;;5020164;28;20703;-61
2023/10/15 06:28:51;;;;;;;5.13;1.92;;;;;;;;;;5021384;28;20655;-61
2023/10/15 06:31:17;;;;;;;5.88;1.70;;;;;;;;;;5023372;28;20208;-61
2023/10/15 06:33:44;;;;;;;2.03;1.42;;;;;;;;;;5023405;28;20659;-61
2023/10/15 06:36:10;;;;;;;3.72;1.73;;;;;;;;;;5019891;28;20590;-61
2023/10/15 06:38:36;;;;;;;4.07;1.10;;;;;;;;;;5020149;28;20198;-60
2023/10/15 06:41:04;;;;;;;4.20;1.70;;;;;;;;;;5021959;28;20229;-61
2023/10/15 06:43:32;;;;;;;3.65;1.27;;;;;;;;;;5023455;28;20229;-61
2023/10/15 06:46:04;;;;;;;6.53;1.58;;;;;;;;;;5021552;28;20602;-61
2023/10/15 06:48:31;;;;;;;2.97;1.05;;;;;;;;;;5020111;28;20198;-61
2023/10/15 06:50:57;;;;;;;4.07;1.50;;;;;;;;;;5021241;28;20207;-61
2023/10/15 06:53:24;;;;;;;3.05;1.95;;;;;;;;;;5023539;28;20201;-61
2023/10/15 06:55:51;;;;;;;5.80;2.03;;;;;;;;;;5022875;28;20253;-61
2023/10/15 06:58:17;;;;;;;7.03;2.10;;;;;;;;;;5019794;28;20702;-61
2023/10/15 07:00:45;;;;;;;2.70;2.05;;;;;;;;;;5019854;28;20225;-61
2023/10/15 07:03:11;;;;;;;8.23;2.15;;;;;;;;;;5022943;28;20219;-60
2023/10/15 07:05:37;;;;;;;2.08;1.77;;;;;;;;;;5023220;28;20233;-60
2023/10/15 07:08:04;;;;;;;3.88;2.03;;;;;;;;;;5021085;28;20212;-61
2023/10/15 07:10:30;;;;;;;4.78;1.70;;;;;;;;;;5019438;28;20672;-61
2023/10/15 07:12:57;;;;;;;5.80;2.08;;;;;;;;;;5020648;28;20202;-61
2023/10/15 07:15:24;;;;;;;6.68;2.03;;;;;;;;;;5023327;28;20222;-61
2023/10/15 07:17:53;;;;;;;3.65;1.73;;;;;;;;;;5022792;28;20197;-61
2023/10/15 07:20:21;;;;;;;6.18;1.90;;;;;;;;;;5019479;28;20194;-61
2023/10/15 07:22:49;;;;;;;3.58;1.70;;;;;;;;;;5019878;28;20269;-61
2023/10/15 07:25:16;;;;;;;4.10;1.95;;;;;;;;;;5023392;28;20307;-60
2023/10/15 07:27:44;;;;;;;5.80;2.00;;;;;;;;;;5027015;28;20193;-61
2023/10/15 07:30:13;;;;;;;4.15;1.95;;;;;;;;;;5024477;28;20306;-60
2023/10/15 07:32:40;;;;;;;3.88;2.05;;;;;;;;;;5023943;28;20198;-61
2023/10/15 07:35:11;;;;;;;3.17;1.65;;;;;;;;;;5025938;28;20237;-60
2023/10/15 07:37:37;;;;;;;8.30;2.28;;;;;;;;;;5027138;28;20205;-61
2023/10/15 07:40:06;;;;;;;4.22;1.50;;;;;;;;;;5024869;28;20204;-61
2023/10/15 07:42:32;;;;;;;4.80;2.17;;;;;;;;;;5023779;28;20218;-61
2023/10/15 07:44:59;;;;;;;4.75;2.00;;;;;;;;;;5024419;28;20210;-61
2023/10/15 07:47:25;;;;;;;10.43;2.65;;;;;;;;;;5027019;28;20240;-60
2023/10/15 07:49:52;;;;;;;5.68;1.70;;;;;;;;;;5026907;28;20205;-60
2023/10/15 07:52:19;;;;;;;6.53;2.00;;;;;;;;;;5031843;28;20206;-60
2023/10/15 07:54:46;;;;;;;4.05;2.15;;;;;;;;;;5023354;28;20207;-60
2023/10/15 07:57:14;;;;;;;4.55;1.90;;;;;;;;;;5025951;28;20226;-61
2023/10/15 07:59:40;;;;;;;9.20;1.90;;;;;;;;;;5026825;28;20576;-61
2023/10/15 08:02:07;;;;;;;9.15;1.95;;;;;;;;;;5024931;28;20226;-61
2023/10/15 08:04:33;;;;;;;6.13;1.83;;;;;;;;;;5023348;28;20199;-61
2023/10/15 08:07:00;;;;;;;7.03;1.95;;;;;;;;;;5023772;28;20223;-61
2023/10/15 08:09:29;;;;;;;6.95;1.90;;;;;;;;;;5026632;28;20193;-61
2023/10/15 08:11:56;;;;;;;5.15;2.10;;;;;;;;;;5026041;28;20285;-61
2023/10/15 08:14:22;;;;;;;8.32;1.80;;;;;;;;;;5023025;28;20682;-61
2023/10/15 08:16:48;;;;;;;4.78;2.05;;;;;;;;;;5022966;28;20230;-61
2023/10/15 08:19:14;;;;;;;3.88;1.90;;;;;;;;;;5025527;28;20205;-61
2023/10/15 08:21:41;;;;;;;5.55;1.90;;;;;;;;;;5025860;28;20237;-61
2023/10/15 08:24:08;;;;;;;3.90;2.08;;;;;;;;;;5024714;28;20236;-61
2023/10/15 08:26:37;;;;;;;2.55;1.63;;;;;;;;;;5022911;28;20222;-61
2023/10/15 08:29:03;;;;;;;6.43;1.75;;;;;;;;;;5023734;28;20223;-61
2023/10/15 08:31:30;;;;;;;2.95;1.55;;;;;;;;;;5026048;28;20194;-61
2023/10/15 08:33:57;;;;;;;5.68;1.38;;;;;;;;;;5025862;28;20206;-61
2023/10/15 08:36:23;;;;;;;5.32;1.70;;;;;;;;;;5022555;28;20693;-61
2023/10/15 08:38:50;;;;;;;3.25;1.40;;;;;;;;;;5021502;28;20202;-61
2023/10/15 08:41:17;;;;;;;2.88;1.38;;;;;;;;;;5024983;28;20250;-61
2023/10/15 08:43:46;;;;;;;5.93;1.63;;;;;;;;;;5025952;28;20205;-61
2023/10/15 08:46:12;;;;;;;6.65;1.33;;;;;;;;;;5023757;28;20222;-61
2023/10/15 08:48:41;;;;;;;3.92;0.98;;;;;;;;;;5022583;28;20206;-61
2023/10/15 08:51:08;;;;;;;4.22;1.42;;;;;;;;;;5023635;28;20209;-61
2023/10/15 08:53:35;;;;;;;5.45;1.30;;;;;;;;;;5025745;28;20697;-61
2023/10/15 08:56:02;;;;;;;4.78;1.00;;;;;;;;;;5025129;28;20228;-61
2023/10/15 08:58:28;;;;;;;5.82;1.52;;;;;;;;;;5022280;28;20194;-61
2023/10/15 09:00:57;;;;;;;7.93;1.55;;;;;;;;;;5022013;28;20206;-61
2023/10/15 09:03:24;;;;;;;2.92;1.35;;;;;;;;;;5025398;28;20215;-61
2023/10/15 09:05:52;;;;;;;3.60;1.20;;;;;;;;;;5025530;28;20229;-60
2023/10/15 09:08:18;;;;;;;5.10;1.30;;;;;;;;;;5022785;28;20586;-61
2023/10/15 09:10:54;;;;;;;3.28;1.17;;;;;;;;;;5021813;28;20205;-61
2023/10/15 09:13:22;;;;;;;3.78;1.20;;;;;;;;;;5024253;28;20239;-60
2023/10/15 09:15:49;;;;;;;6.70;1.48;;;;;;;;;;5025564;28;20222;-60
2023/10/15 09:18:17;;;;;;;5.07;1.30;;;;;;;;;;5023221;28;20206;-61
2023/10/15 09:20:44;;;;;;;3.80;1.23;;;;;;;;;;5021709;28;20210;-61
2023/10/15 09:23:10;;;;;;;3.95;1.50;;;;;;;;;;5022815;28;20690;-62
2023/10/15 09:25:37;;;;;;;4.57;1.38;;;;;;;;;;5025049;28;20619;-61
2023/10/15 09:28:05;;;;;;;4.95;1.50;;;;;;;;;;5024479;28;20208;-61
2023/10/15 09:30:31;;;;;;;5.22;1.48;;;;;;;;;;5021587;28;20198;-61
2023/10/15 09:32:57;;;;;;;2.92;1.40;;;;;;;;;;5021855;28;20202;-61
2023/10/15 09:35:25;;;;;;;3.63;1.50;;;;;;;;;;5029762;28;20302;-62
2023/10/15 09:37:53;;;;;;;3.00;0.80;;;;;;;;;;5021600;28;20199;-61
2023/10/15 09:40:19;;;;;;;3.83;0.95;;;;;;;;;;5023374;28;20209;-60
2023/10/15 09:42:46;;;;;;;2.05;0.85;;;;;;;;;;5025024;28;20221;-60
2023/10/15 09:45:18;;;;;;;1.60;0.95;;;;;;;;;;5023494;28;20198;-61
2023/10/15 09:47:48;;;;;;;3.10;1.15;;;;;;;;;;5021450;28;20202;-59
2023/10/15 09:50:16;;;;;;;1.25;0.80;;;;;;;;;;5022137;28;20203;-60
2023/10/15 09:52:46;;;;;;;3.45;1.02;;;;;;;;;;5021066;28;20732;-60
2023/10/15 09:55:12;;;;;;;5.13;1.30;;;;;;;;;;5029166;28;20266;-60
2023/10/15 09:57:39;;;;;;;3.33;1.25;;;;;;;;;;5022224;28;20202;-60
2023/10/15 10:00:14;;;;;;;3.05;1.25;;;;;;;;;;5023767;28;20205;-61
2023/10/15 10:02:46;;;;;;;4.63;1.40;;;;;;;;;;5015222;28;20218;-61
2023/10/15 10:05:41;;;;;;;3.28;1.00;;;;;;;;;;5016130;28;20222;-60
2023/10/15 10:08:12;;;;;;;4.93;1.60;;;;;;;;;;5018386;28;20209;-60
2023/10/15 10:10:48;;;;;;;4.35;1.55;;;;;;;;;;5021995;28;20225;-61
2023/10/15 10:13:33;;;;;;;3.03;1.30;;;;;;;;;;5031810;28;20205;-60
2023/10/15 10:15:59;;;;;;;3.33;1.17;;;;;;;;;;5021041;28;20265;-60
2023/10/15 10:18:27;;;;;;;2.17;1.17;;;;;;;;;;5023487;28;20207;-61
2023/10/15 10:20:55;;;;;;;2.63;1.30;;;;;;;;;;5024247;28;20208;-60
2023/10/15 10:23:23;;;;;;;3.17;1.25;;;;;;;;;;5021888;28;20228;-61
2023/10/15 10:25:50;;;;;;;1.67;1.00;;;;;;;;;;5021034;28;20222;-61
2023/10/15 10:28:17;;;;;;;4.35;1.20;;;;;;;;;;5021650;28;20202;-60
2023/10/15 10:30:53;;;;;;;2.85;1.00;;;;;;;;;;5024140;28;20193;-61
2023/10/15 10:33:34;;;;;;;3.30;1.25;;;;;;;;;;5022341;28;20237;-61
2023/10/15 10:36:10;;;;;;;4.15;1.80;;;;;;;;;;5020575;28;20222;-61
2023/10/15 10:38:39;;;;;;;5.63;2.30;;;;;;;;;;5024680;28;20217;-61
2023/10/15 10:41:07;;;;;;;3.90;2.75;;;;;;;;;;5024132;28;20213;-61
2023/10/15 10:43:33;;;;;;;3.75;1.45;;;;;;;;;;5021475;28;20225;-61
2023/10/15 10:46:00;;;;;;;1.88;0.70;;;;;;;;;;5021493;28;20310;-61
2023/10/15 10:48:27;;;;;;;1.67;1.15;;;;;;;;;;5023120;28;20583;-61
2023/10/15 10:51:12;;;;;;;4.50;1.50;;;;;;;;;;5023487;28;20205;-61
2023/10/15 10:53:40;;;;;;;1.45;0.70;;;;;;;;;;5024365;28;20229;-61
2023/10/15 10:56:07;;;;;;;3.03;1.05;;;;;;;;;;5023443;28;20652;-61
2023/10/15 10:58:34;;;;;;;2.92;0.90;;;;;;;;;;5020195;28;20694;-61
2023/10/15 11:01:01;;;;;;;3.40;1.35;;;;;;;;;;5019284;28;20202;-61
2023/10/15 11:03:28;;;;;;;2.80;1.35;;;;;;;;;;5022349;28;20218;-61
2023/10/15 11:05:55;;;;;;;0.88;0.85;;;;;;;;;;5023204;28;20222;-61
2023/10/15 11:08:22;;;;;;;2.47;0.93;;;;;;;;;;5022188;28;20225;-61
2023/10/15 11:10:49;;;;;;;3.13;0.70;;;;;;;;;;5020604;28;20213;-61
2023/10/15 11:13:16;;;;;;;1.30;0.77;;;;;;;;;;5021112;28;20195;-61
2023/10/15 11:15:42;;;;;;;1.08;0.88;;;;;;;;;;5023830;28;20744;-62
2023/10/15 11:18:09;;;;;;;4.20;1.30;;;;;;;;;;5023752;28;20206;-62
2023/10/15 11:20:36;;;;;;;1.42;0.88;;;;;;;;;;5020458;28;20289;-61
2023/10/15 11:23:04;;;;;;;1.63;0.90;;;;;;;;;;5020503;28;20241;-62
2023/10/15 11:25:31;;;;;;;3.13;0.90;;;;;;;;;;5028421;28;20221;-61
2023/10/15 11:28:01;;;;;;;3.40;1.02;;;;;;;;;;5020182;28;20225;-61
2023/10/15 11:30:29;;;;;;;3.42;1.05;;;;;;;;;;5021935;28;20206;-61
2023/10/15 11:32:55;;;;;;;2.97;0.93;;;;;;;;;;5022874;28;20210;-61
2023/10/15 11:35:21;;;;;;;2.83;0.70;;;;;;;;;;5021997;28;20305;-61
2023/10/15 11:37:50;;;;;;;2.55;0.77;;;;;;;;;;5020084;28;20574;-61
2023/10/15 11:40:17;;;;;;;1.17;0.90;;;;;;;;;;5020099;28;20206;-61
2023/10/15 11:42:46;;;;;;;2.30;0.65;;;;;;;;;;5023418;28;20241;-62
2023/10/15 11:45:25;;;;;;;2.58;1.00;;;;;;;;;;5023017;28;20634;-61
2023/10/15 11:47:52;;;;;;;1.70;0.90;;;;;;;;;;5024810;28;20202;-62
2023/10/15 11:50:19;;;;;;;1.77;1.00;;;;;;;;;;5022376;28;20197;-62
2023/10/15 11:52:49;;;;;;;2.15;0.90;;;;;;;;;;5019918;28;20285;-61
2023/10/15 11:55:19;;;;;;;3.03;0.80;;;;;;;;;;5019672;28;20222;-62
2023/10/15 11:57:49;;;;;;;2.65;0.98;;;;;;;;;;5023674;28;20201;-61
2023/10/15 12:00:22;;;;;;;2.60;0.90;;;;;;;;;;5022931;28;20300;-61
2023/10/15 12:02:49;;;;;;;3.47;1.00;;;;;;;;;;5022963;28;20245;-61
2023/10/15 12:05:16;;;;;;;1.98;0.80;;;;;;;;;;5023002;28;20260;-61
2023/10/15 12:07:42;;;;;;;3.83;1.23;;;;;;;;;;5015055;28;20213;-62
2023/10/15 12:10:14;;;;;;;2.90;1.05;;;;;;;;;;5023791;28;20230;-61
2023/10/15 12:12:40;;;;;;;2.17;0.80;;;;;;;;;;5024597;28;20194;-61
2023/10/15 12:15:08;;;;;;;3.10;1.00;;;;;;;;;;5026462;28;20232;-62
2023/10/15 12:17:35;;;;;;;2.83;0.90;;;;;;;;;;5024398;28;20233;-62
2023/10/15 12:20:04;;;;;;;2.58;1.20;;;;;;;;;;5023060;28;20205;-62
2023/10/15 12:22:31;;;;;;;3.03;1.40;;;;;;;;;;5024576;28;20638;-62
2023/10/15 12:24:57;;;;;;;2.28;1.33;;;;;;;;;;5026179;28;20202;-62
2023/10/15 12:27:25;;;;;;;3.15;1.10;;;;;;;;;;5025735;28;20202;-62
2023/10/15 12:29:54;;;;;;;3.08;1.23;;;;;;;;;;5022971;28;20206;-61
2023/10/15 12:32:21;;;;;;;3.83;1.00;;;;;;;;;;5022676;28;20202;-61
2023/10/15 12:34:48;;;;;;;2.10;1.05;;;;;;;;;;5026121;28;20202;-62
2023/10/15 12:37:15;;;;;;;5.55;1.25;;;;;;;;;;5025793;28;20217;-61
2023/10/15 12:39:43;;;;;;;4.20;1.35;;;;;;;;;;5023139;28;20203;-61
2023/10/15 12:42:11;;;;;;;1.40;0.93;;;;;;;;;;5022408;28;20675;-61
2023/10/15 12:44:39;;;;;;;2.35;0.98;;;;;;;;;;5025318;28;20198;-61
2023/10/15 12:47:07;;;;;;;3.20;1.20;;;;;;;;;;5025828;28;20308;-62
2023/10/15 12:49:34;;;;;;;1.90;0.98;;;;;;;;;;5023938;28;20321;-61
2023/10/15 12:52:02;;;;;;;3.15;1.00;;;;;;;;;;5022126;28;20198;-61
2023/10/15 12:54:28;;;;;;;1.92;1.20;;;;;;;;;;5023539;28;20208;-60
2023/10/15 12:56:55;;;;;;;3.38;1.00;;;;;;;;;;5025731;28;20253;-60
2023/10/15 12:59:22;;;;;;;1.48;0.90;;;;;;;;;;5025615;28;20205;-61
2023/10/15 13:01:48;;;;;;;6.15;1.08;;;;;;;;;;5021760;28;20683;-61
2023/10/15 13:04:14;;;;;;;2.63;0.98;;;;;;;;;;5022077;28;20229;-62
2023/10/15 13:06:41;;;;;;;2.45;1.40;;;;;;;;;;5024558;28;20492;-61
2023/10/15 13:09:09;;;;;;;3.38;1.35;;;;;;;;;;5025614;28;20198;-62
2023/10/15 13:11:35;;;;;;;2.78;1.25;;;;;;;;;;5023887;28;20270;-62
2023/10/15 13:14:02;;;;;;;4.15;1.20;;;;;;;;;;5022176;28;20198;-61
2023/10/15 13:16:29;;;;;;;1.77;0.70;;;;;;;;;;5022427;28;20248;-61
2023/10/15 13:18:56;;;;;;;1.75;1.58;;;;;;;;;;5025257;28;20251;-61
2023/10/15 13:21:22;;;;;;;2.67;0.95;;;;;;;;;;5024845;28;20678;-61
2023/10/15 13:23:48;;;;;;;1.73;0.85;;;;;;;;;;5021177;28;20218;-62
2023/10/15 13:26:16;;;;;;;3.35;1.33;;;;;;;;;;5021659;28;20590;-61
2023/10/15 13:28:47;;;;;;;1.67;0.82;;;;;;;;;;5024059;28;20209;-61
2023/10/15 13:31:13;;;;;;;2.67;1.02;;;;;;;;;;5024829;28;20293;-62
2023/10/15 13:33:41;;;;;;;1.40;1.00;;;;;;;;;;5022737;28;20674;-62
2023/10/15 13:36:08;;;;;;;3.10;0.85;;;;;;;;;;5021676;28;20222;-61
2023/10/15 13:38:34;;;;;;;1.40;0.77;;;;;;;;;;5022699;28;20697;-62
2023/10/15 13:41:01;;;;;;;1.85;0.65;;;;;;;;;;5024763;28;20220;-61
2023/10/15 13:43:28;;;;;;;1.65;0.77;;;;;;;;;;5024312;28;20217;-63
2023/10/15 13:45:55;;;;;;;0.63;0.63;;;;;;;;;;5021357;28;20226;-61
2023/10/15 13:48:21;;;;;;;1.13;0.60;;;;;;;;;;5021382;28;20313;-62
2023/10/15 13:50:48;;;;;;;2.75;1.00;;;;;;;;;;5023959;28;20745;-61
2023/10/15 13:53:14;;;;;;;2.13;0.95;;;;;;;;;;5024742;28;20241;-61
2023/10/15 13:55:40;;;;;;;4.10;1.30;;;;;;;;;;5022580;28;20228;-63
2023/10/15 13:58:07;;;;;;;2.50;0.75;;;;;;;;;;5021358;28;20198;-61
2023/10/15 14:00:37;;;;;;;0.98;0.75;;;;;;;;;;5021566;28;20209;-60
2023/10/15 14:03:04;;;;;;;1.30;0.70;;;;;;;;;;5024680;28;20291;-62
2023/10/15 14:05:32;;;;;;;1.23;0.90;;;;;;;;;;5023855;28;20244;-61
2023/10/15 14:07:59;;;;;;;2.30;0.90;;;;;;;;;;5021017;28;20229;-62
2023/10/15 14:10:26;;;;;;;1.52;0.75;;;;;;;;;;5020789;28;20203;-61
2023/10/15 14:12:52;;;;;;;2.15;1.02;;;;;;;;;;5024049;28;20220;-61
2023/10/15 14:15:18;;;;;;;2.28;0.90;;;;;;;;;;5024036;28;20615;-61
2023/10/15 14:17:46;;;;;;;0.98;0.80;;;;;;;;;;5022131;28;20224;-61
2023/10/15 14:20:15;;;;;;;2.08;0.93;;;;;;;;;;5020869;28;20217;-62
2023/10/15 14:22:41;;;;;;;1.88;0.80;;;;;;;;;;5022349;28;20226;-61
2023/10/15 14:25:08;;;;;;;0.82;0.68;;;;;;;;;;5024034;28;20202;-61
2023/10/15 14:27:35;;;;;;;1.58;1.08;;;;;;;;;;5023279;28;20286;-61
2023/10/15 14:30:01;;;;;;;1.17;0.82;;;;;;;;;;5020695;28;20203;-61
2023/10/15 14:32:27;;;;;;;1.40;0.80;;;;;;;;;;5020825;28;20305;-61
2023/10/15 14:34:58;;;;;;;1.17;0.85;;;;;;;;;;5023282;28;20194;-61
2023/10/15 14:37:25;;;;;;;1.25;0.90;;;;;;;;;;5023460;28;20205;-62
2023/10/15 14:39:51;;;;;;;0.90;0.80;;;;;;;;;;5021034;28;20214;-61
2023/10/15 14:42:18;;;;;;;0.60;0.60;;;;;;;;;;5020131;28;20620;-61
2023/10/15 14:44:44;;;;;;;1.13;0.60;;;;;;;;;;5021780;28;20214;-61
2023/10/15 14:47:11;;;;;;;1.17;0.70;;;;;;;;;;5023779;28;20222;-61
2023/10/15 14:49:37;;;;;;;0.88;0.80;;;;;;;;;;5022969;28;20527;-61